sensor_id;sensor_type;location;lat;lon;timestamp;P1;durP1;ratioP1;P2;durP2;ratioP2
29238;SDS011;16267;48.194;11.546;2022-09-03T04:01:04;2.67;;;1.92;;
29238;SDS011;16267;48.194;11.546;2022-09-03T04:03:36;3.95;;;1.95;;
29238;SDS011;16267;48.194;11.546;2022-09-03T04:06:03;4.80;;;2.10;;
29238;SDS011;16267;48.194;11.546;2022-09-03T04:08:30;5.57;;;2.40;;
29238;SDS011;16267;48.194;11.546;2022-09-03T04:11:00;6.43;;;2.40;;
29238;SDS011;16267;48.194;11.546;2022-09-03T04:13:31;4.45;;;2.20;;
29238;SDS011;16267;48.194;11.546;2022-09-03T04:16:03;4.38;;;2.50;;
29238;SDS011;16267;48.194;11.546;2022-09-03T04:18:31;5.50;;;2.53;;
29238;SDS011;16267;48.194;11.546;2022-09-03T04:21:02;2.85;;;2.42;;
29238;SDS011;16267;48.194;11.546;2022-09-03T04:23:38;4.68;;;2.40;;
29238;SDS011;16267;48.194;11.546;2022-09-03T04:26:07;7.63;;;2.47;;
29238;SDS011;16267;48.194;11.546;2022-09-03T04:28:34;5.65;;;2.40;;
29238;SDS011;16267;48.194;11.546;2022-09-03T04:31:04;4.43;;;2.00;;
29238;SDS011;16267;48.194;11.546;2022-09-03T04:33:33;6.18;;;2.20;;
29238;SDS011;16267;48.194;11.546;2022-09-03T04:36:03;4.85;;;3.15;;
29238;SDS011;16267;48.194;11.546;2022-09-03T04:38:36;4.25;;;2.50;;
29238;SDS011;16267;48.194;11.546;2022-09-03T04:41:05;4.78;;;2.65;;
29238;SDS011;16267;48.194;11.546;2022-09-03T04:43:32;4.68;;;2.67;;
29238;SDS011;16267;48.194;11.546;2022-09-03T04:45:59;5.82;;;2.47;;
29238;SDS011;16267;48.194;11.546;2022-09-03T04:48:28;4.55;;;2.83;;
29238;SDS011;16267;48.194;11.546;2022-09-03T04:51:00;4.25;;;2.42;;
29238;SDS011;16267;48.194;11.546;2022-09-03T04:53:39;5.88;;;2.30;;
29238;SDS011;16267;48.194;11.546;2022-09-03T04:56:22;3.70;;;2.17;;
29238;SDS011;16267;48.194;11.546;2022-09-03T04:58:54;3.53;;;2.20;;
29238;SDS011;16267;48.194;11.546;2022-09-03T05:01:23;5.05;;;2.17;;
29238;SDS011;16267;48.194;11.546;2022-09-03T05:03:51;3.80;;;2.00;;
29238;SDS011;16267;48.194;11.546;2022-09-03T05:06:19;3.80;;;2.22;;
29238;SDS011;16267;48.194;11.546;2022-09-03T05:08:48;3.67;;;2.05;;
29238;SDS011;16267;48.194;11.546;2022-09-03T05:11:15;6.20;;;2.10;;
29238;SDS011;16267;48.194;11.546;2022-09-03T05:13:42;4.78;;;1.98;;
29238;SDS011;16267;48.194;11.546;2022-09-03T05:16:09;7.55;;;2.15;;
29238;SDS011;16267;48.194;11.546;2022-09-03T05:18:37;4.72;;;2.40;;
29238;SDS011;16267;48.194;11.546;2022-09-03T05:21:04;8.82;;;3.22;;
29238;SDS011;16267;48.194;11.546;2022-09-03T05:23:40;4.70;;;2.20;;
29238;SDS011;16267;48.194;11.546;2022-09-03T05:26:09;5.45;;;2.40;;
29238;SDS011;16267;48.194;11.546;2022-09-03T05:28:44;5.97;;;2.10;;
29238;SDS011;16267;48.194;11.546;2022-09-03T05:31:14;3.78;;;2.20;;
29238;SDS011;16267;48.194;11.546;2022-09-03T05:33:43;3.67;;;2.50;;
29238;SDS011;16267;48.194;11.546;2022-09-03T05:36:13;3.67;;;2.83;;
29238;SDS011;16267;48.194;11.546;2022-09-03T05:38:41;4.22;;;2.40;;
29238;SDS011;16267;48.194;11.546;2022-09-03T05:41:08;2.90;;;2.13;;
29238;SDS011;16267;48.194;11.546;2022-09-03T05:43:35;3.17;;;2.30;;
29238;SDS011;16267;48.194;11.546;2022-09-03T05:46:03;5.60;;;2.42;;
29238;SDS011;16267;48.194;11.546;2022-09-03T05:48:34;6.10;;;2.45;;
29238;SDS011;16267;48.194;11.546;2022-09-03T05:51:03;2.85;;;1.98;;
29238;SDS011;16267;48.194;11.546;2022-09-03T05:53:35;2.40;;;2.13;;
29238;SDS011;16267;48.194;11.546;2022-09-03T05:56:04;3.75;;;2.25;;
29238;SDS011;16267;48.194;11.546;2022-09-03T05:58:37;4.20;;;2.10;;
29238;SDS011;16267;48.194;11.546;2022-09-03T06:01:19;2.80;;;2.33;;
29238;SDS011;16267;48.194;11.546;2022-09-03T06:03:52;4.63;;;2.60;;
29238;SDS011;16267;48.194;11.546;2022-09-03T06:06:23;3.97;;;2.70;;
29238;SDS011;16267;48.194;11.546;2022-09-03T06:08:55;2.97;;;2.10;;
29238;SDS011;16267;48.194;11.546;2022-09-03T06:11:24;2.77;;;2.10;;
29238;SDS011;16267;48.194;11.546;2022-09-03T06:13:52;4.28;;;2.30;;
29238;SDS011;16267;48.194;11.546;2022-09-03T06:16:20;6.72;;;2.70;;
29238;SDS011;16267;48.194;11.546;2022-09-03T06:18:47;5.68;;;2.45;;
29238;SDS011;16267;48.194;11.546;2022-09-03T06:21:13;4.80;;;2.45;;
29238;SDS011;16267;48.194;11.546;2022-09-03T06:23:39;4.25;;;2.60;;
29238;SDS011;16267;48.194;11.546;2022-09-03T06:26:10;7.47;;;2.55;;
29238;SDS011;16267;48.194;11.546;2022-09-03T06:28:39;3.70;;;2.35;;
29238;SDS011;16267;48.194;11.546;2022-09-03T06:31:10;2.95;;;2.45;;
29238;SDS011;16267;48.194;11.546;2022-09-03T06:33:38;5.13;;;2.42;;
29238;SDS011;16267;48.194;11.546;2022-09-03T06:36:07;5.00;;;2.25;;
29238;SDS011;16267;48.194;11.546;2022-09-03T06:38:38;8.10;;;2.33;;
29238;SDS011;16267;48.194;11.546;2022-09-03T06:41:06;2.88;;;2.00;;
29238;SDS011;16267;48.194;11.546;2022-09-03T06:43:54;3.85;;;2.40;;
29238;SDS011;16267;48.194;11.546;2022-09-03T06:46:26;4.57;;;2.72;;
29238;SDS011;16267;48.194;11.546;2022-09-03T06:48:53;5.40;;;2.28;;
29238;SDS011;16267;48.194;11.546;2022-09-03T06:51:24;5.40;;;2.60;;
29238;SDS011;16267;48.194;11.546;2022-09-03T06:53:52;3.92;;;2.25;;
29238;SDS011;16267;48.194;11.546;2022-09-03T06:56:24;3.40;;;2.53;;
29238;SDS011;16267;48.194;11.546;2022-09-03T06:58:53;5.13;;;2.03;;
29238;SDS011;16267;48.194;11.546;2022-09-03T07:01:28;4.68;;;2.60;;
29238;SDS011;16267;48.194;11.546;2022-09-03T07:03:56;7.68;;;2.78;;
29238;SDS011;16267;48.194;11.546;2022-09-03T07:06:28;6.82;;;2.75;;
29238;SDS011;16267;48.194;11.546;2022-09-03T07:09:06;3.78;;;2.30;;
29238;SDS011;16267;48.194;11.546;2022-09-03T07:11:33;5.80;;;2.45;;
29238;SDS011;16267;48.194;11.546;2022-09-03T07:14:00;3.65;;;2.50;;
29238;SDS011;16267;48.194;11.546;2022-09-03T07:16:29;5.05;;;2.33;;
29238;SDS011;16267;48.194;11.546;2022-09-03T07:19:00;6.13;;;3.17;;
29238;SDS011;16267;48.194;11.546;2022-09-03T07:21:28;3.60;;;2.70;;
29238;SDS011;16267;48.194;11.546;2022-09-03T07:23:57;5.20;;;2.78;;
29238;SDS011;16267;48.194;11.546;2022-09-03T07:26:25;4.32;;;2.33;;
29238;SDS011;16267;48.194;11.546;2022-09-03T07:28:54;5.85;;;2.50;;
29238;SDS011;16267;48.194;11.546;2022-09-03T07:31:53;8.18;;;2.40;;
29238;SDS011;16267;48.194;11.546;2022-09-03T07:34:15;3.95;;;2.58;;
29238;SDS011;16267;48.194;11.546;2022-09-03T07:36:43;4.07;;;2.50;;
29238;SDS011;16267;48.194;11.546;2022-09-03T07:39:11;8.88;;;3.10;;
29238;SDS011;16267;48.194;11.546;2022-09-03T07:41:39;4.38;;;2.65;;
29238;SDS011;16267;48.194;11.546;2022-09-03T07:44:10;3.33;;;2.28;;
29238;SDS011;16267;48.194;11.546;2022-09-03T07:46:43;5.75;;;2.65;;
29238;SDS011;16267;48.194;11.546;2022-09-03T07:49:11;6.03;;;2.53;;
29238;SDS011;16267;48.194;11.546;2022-09-03T07:51:37;3.78;;;2.47;;
29238;SDS011;16267;48.194;11.546;2022-09-03T07:54:04;5.28;;;2.72;;
29238;SDS011;16267;48.194;11.546;2022-09-03T07:56:34;3.30;;;2.75;;
29238;SDS011;16267;48.194;11.546;2022-09-03T07:59:01;4.80;;;2.53;;
29238;SDS011;16267;48.194;11.546;2022-09-03T08:01:28;21.13;;;3.15;;
29238;SDS011;16267;48.194;11.546;2022-09-03T08:03:58;10.70;;;2.30;;
29238;SDS011;16267;48.194;11.546;2022-09-03T08:06:26;6.68;;;2.58;;
29238;SDS011;16267;48.194;11.546;2022-09-03T08:08:58;4.25;;;2.38;;
29238;SDS011;16267;48.194;11.546;2022-09-03T08:11:27;6.43;;;3.25;;
29238;SDS011;16267;48.194;11.546;2022-09-03T08:16:34;3.80;;;2.53;;
29238;SDS011;16267;48.194;11.546;2022-09-03T08:19:20;10.90;;;2.88;;
29238;SDS011;16267;48.194;11.546;2022-09-03T08:21:46;5.32;;;3.00;;
29238;SDS011;16267;48.194;11.546;2022-09-03T08:24:13;5.28;;;3.13;;
29238;SDS011;16267;48.194;11.546;2022-09-03T08:26:41;4.78;;;3.13;;
29238;SDS011;16267;48.194;11.546;2022-09-03T08:29:07;3.75;;;2.63;;
29238;SDS011;16267;48.194;11.546;2022-09-03T08:31:34;6.38;;;3.03;;
29238;SDS011;16267;48.194;11.546;2022-09-03T08:34:01;5.10;;;3.10;;
29238;SDS011;16267;48.194;11.546;2022-09-03T08:36:31;4.57;;;3.00;;
29238;SDS011;16267;48.194;11.546;2022-09-03T08:39:03;4.68;;;2.63;;
29238;SDS011;16267;48.194;11.546;2022-09-03T08:58:15;6.53;;;2.60;;
29238;SDS011;16267;48.194;11.546;2022-09-03T09:00:54;5.35;;;2.92;;
29238;SDS011;16267;48.194;11.546;2022-09-03T09:03:31;3.03;;;2.72;;
29238;SDS011;16267;48.194;11.546;2022-09-03T09:21:11;6.30;;;3.28;;
29238;SDS011;16267;48.194;11.546;2022-09-03T09:23:53;6.18;;;2.85;;
29238;SDS011;16267;48.194;11.546;2022-09-03T09:26:25;4.60;;;2.45;;
29238;SDS011;16267;48.194;11.546;2022-09-03T09:29:26;3.97;;;2.67;;
29238;SDS011;16267;48.194;11.546;2022-09-03T09:31:45;4.00;;;2.47;;
29238;SDS011;16267;48.194;11.546;2022-09-03T09:34:11;3.75;;;2.65;;
29238;SDS011;16267;48.194;11.546;2022-09-03T09:36:42;3.70;;;2.72;;
29238;SDS011;16267;48.194;11.546;2022-09-03T09:39:11;3.72;;;2.35;;
29238;SDS011;16267;48.194;11.546;2022-09-03T09:41:39;3.50;;;2.50;;
29238;SDS011;16267;48.194;11.546;2022-09-03T09:44:07;4.32;;;2.17;;
29238;SDS011;16267;48.194;11.546;2022-09-03T09:46:43;4.50;;;2.17;;
29238;SDS011;16267;48.194;11.546;2022-09-03T09:49:29;4.72;;;1.95;;
29238;SDS011;16267;48.194;11.546;2022-09-03T09:52:10;3.30;;;2.30;;
29238;SDS011;16267;48.194;11.546;2022-09-03T09:54:39;4.93;;;2.20;;
29238;SDS011;16267;48.194;11.546;2022-09-03T09:57:12;5.00;;;2.33;;
29238;SDS011;16267;48.194;11.546;2022-09-03T09:59:42;2.55;;;1.95;;
29238;SDS011;16267;48.194;11.546;2022-09-03T10:02:14;5.57;;;1.80;;
29238;SDS011;16267;48.194;11.546;2022-09-03T10:04:52;3.83;;;2.03;;
29238;SDS011;16267;48.194;11.546;2022-09-03T10:07:36;2.65;;;1.55;;
29238;SDS011;16267;48.194;11.546;2022-09-03T10:12:30;3.33;;;2.00;;
29238;SDS011;16267;48.194;11.546;2022-09-03T10:15:24;2.90;;;1.65;;
29238;SDS011;16267;48.194;11.546;2022-09-03T10:24:48;3.17;;;1.88;;
29238;SDS011;16267;48.194;11.546;2022-09-03T10:27:22;3.03;;;1.55;;
29238;SDS011;16267;48.194;11.546;2022-09-03T10:29:48;3.28;;;2.83;;
29238;SDS011;16267;48.194;11.546;2022-09-03T10:38:02;3.50;;;1.35;;
29238;SDS011;16267;48.194;11.546;2022-09-03T10:40:39;2.10;;;1.55;;
29238;SDS011;16267;48.194;11.546;2022-09-03T10:51:33;1.85;;;1.25;;
29238;SDS011;16267;48.194;11.546;2022-09-03T11:05:38;2.65;;;1.10;;
29238;SDS011;16267;48.194;11.546;2022-09-03T11:10:42;2.90;;;1.40;;
29238;SDS011;16267;48.194;11.546;2022-09-03T11:13:40;4.65;;;1.35;;
29238;SDS011;16267;48.194;11.546;2022-09-03T11:16:11;2.15;;;1.10;;
29238;SDS011;16267;48.194;11.546;2022-09-03T11:23:49;3.17;;;1.13;;
29238;SDS011;16267;48.194;11.546;2022-09-03T11:26:33;3.33;;;1.17;;
29238;SDS011;16267;48.194;11.546;2022-09-03T11:29:12;2.15;;;1.13;;
29238;SDS011;16267;48.194;11.546;2022-09-03T11:32:04;3.60;;;1.20;;
29238;SDS011;16267;48.194;11.546;2022-09-03T11:34:46;1.50;;;1.10;;
29238;SDS011;16267;48.194;11.546;2022-09-03T11:37:22;2.75;;;1.30;;
29238;SDS011;16267;48.194;11.546;2022-09-03T11:40:11;1.67;;;1.38;;
29238;SDS011;16267;48.194;11.546;2022-09-03T11:42:45;2.33;;;1.40;;
29238;SDS011;16267;48.194;11.546;2022-09-03T11:47:54;1.50;;;1.10;;
29238;SDS011;16267;48.194;11.546;2022-09-03T11:53:07;2.70;;;2.10;;
29238;SDS011;16267;48.194;11.546;2022-09-03T11:58:43;2.15;;;1.25;;
29238;SDS011;16267;48.194;11.546;2022-09-03T12:01:10;3.75;;;1.25;;
29238;SDS011;16267;48.194;11.546;2022-09-03T12:18:43;2.78;;;1.00;;
29238;SDS011;16267;48.194;11.546;2022-09-03T12:21:15;1.20;;;1.10;;
29238;SDS011;16267;48.194;11.546;2022-09-03T12:23:45;1.48;;;1.08;;
29238;SDS011;16267;48.194;11.546;2022-09-03T12:26:17;1.70;;;1.10;;
29238;SDS011;16267;48.194;11.546;2022-09-03T12:28:51;4.72;;;1.20;;
29238;SDS011;16267;48.194;11.546;2022-09-03T12:31:24;1.97;;;1.20;;
29238;SDS011;16267;48.194;11.546;2022-09-03T12:34:30;0.95;;;0.90;;
29238;SDS011;16267;48.194;11.546;2022-09-03T12:36:50;1.58;;;1.20;;
29238;SDS011;16267;48.194;11.546;2022-09-03T12:47:11;2.08;;;1.17;;
29238;SDS011;16267;48.194;11.546;2022-09-03T12:49:41;1.30;;;1.10;;
29238;SDS011;16267;48.194;11.546;2022-09-03T12:52:27;1.83;;;1.10;;
29238;SDS011;16267;48.194;11.546;2022-09-03T12:55:05;1.83;;;1.00;;
29238;SDS011;16267;48.194;11.546;2022-09-03T13:00:32;2.28;;;1.10;;
29238;SDS011;16267;48.194;11.546;2022-09-03T13:03:18;1.48;;;1.10;;
29238;SDS011;16267;48.194;11.546;2022-09-03T13:06:23;1.40;;;1.08;;
29238;SDS011;16267;48.194;11.546;2022-09-03T13:09:03;1.13;;;1.00;;
29238;SDS011;16267;48.194;11.546;2022-09-03T13:11:34;1.65;;;0.98;;
29238;SDS011;16267;48.194;11.546;2022-09-03T13:14:07;1.13;;;1.00;;
29238;SDS011;16267;48.194;11.546;2022-09-03T13:24:58;2.22;;;1.65;;
29238;SDS011;16267;48.194;11.546;2022-09-03T13:33:36;1.35;;;1.08;;
29238;SDS011;16267;48.194;11.546;2022-09-03T13:36:12;2.22;;;1.38;;
29238;SDS011;16267;48.194;11.546;2022-09-03T13:44:35;3.55;;;1.40;;
29238;SDS011;16267;48.194;11.546;2022-09-03T13:47:24;2.13;;;1.30;;
29238;SDS011;16267;48.194;11.546;2022-09-03T13:50:40;3.97;;;1.20;;
29238;SDS011;16267;48.194;11.546;2022-09-03T13:56:58;1.10;;;1.00;;
29238;SDS011;16267;48.194;11.546;2022-09-03T14:00:08;1.08;;;0.98;;
29238;SDS011;16267;48.194;11.546;2022-09-03T14:06:10;1.10;;;0.98;;
29238;SDS011;16267;48.194;11.546;2022-09-03T14:14:51;3.47;;;1.48;;
29238;SDS011;16267;48.194;11.546;2022-09-03T14:20:03;2.35;;;1.70;;
29238;SDS011;16267;48.194;11.546;2022-09-03T14:23:04;4.50;;;1.83;;
29238;SDS011;16267;48.194;11.546;2022-09-03T14:25:55;6.10;;;1.65;;
29238;SDS011;16267;48.194;11.546;2022-09-03T14:39:16;9.50;;;1.80;;
29238;SDS011;16267;48.194;11.546;2022-09-03T14:56:04;3.25;;;1.10;;
29238;SDS011;16267;48.194;11.546;2022-09-03T14:58:59;3.30;;;1.23;;
29238;SDS011;16267;48.194;11.546;2022-09-03T15:02:03;3.65;;;1.27;;
29238;SDS011;16267;48.194;11.546;2022-09-03T15:08:05;4.13;;;1.65;;
29238;SDS011;16267;48.194;11.546;2022-09-03T15:10:58;4.60;;;1.20;;
29238;SDS011;16267;48.194;11.546;2022-09-03T15:13:28;7.88;;;1.58;;
29238;SDS011;16267;48.194;11.546;2022-09-03T15:16:04;4.60;;;2.05;;
29238;SDS011;16267;48.194;11.546;2022-09-03T15:21:59;6.45;;;2.00;;
29238;SDS011;16267;48.194;11.546;2022-09-03T15:25:22;4.63;;;2.03;;
29238;SDS011;16267;48.194;11.546;2022-09-03T15:34:28;4.75;;;1.63;;
29238;SDS011;16267;48.194;11.546;2022-09-03T15:37:17;6.57;;;1.67;;
29238;SDS011;16267;48.194;11.546;2022-09-03T15:43:08;4.25;;;1.85;;
29238;SDS011;16267;48.194;11.546;2022-09-03T15:51:41;4.50;;;1.83;;
29238;SDS011;16267;48.194;11.546;2022-09-03T15:57:26;4.82;;;2.00;;
29238;SDS011;16267;48.194;11.546;2022-09-03T16:00:19;3.47;;;1.58;;
29238;SDS011;16267;48.194;11.546;2022-09-03T16:05:27;3.67;;;1.40;;
29238;SDS011;16267;48.194;11.546;2022-09-03T16:08:21;4.47;;;1.60;;
29238;SDS011;16267;48.194;11.546;2022-09-03T16:10:56;3.45;;;1.70;;
29238;SDS011;16267;48.194;11.546;2022-09-03T16:19:16;4.18;;;1.88;;
29238;SDS011;16267;48.194;11.546;2022-09-03T16:21:56;2.65;;;1.42;;
29238;SDS011;16267;48.194;11.546;2022-09-03T16:27:33;4.57;;;1.48;;
29238;SDS011;16267;48.194;11.546;2022-09-03T16:38:45;2.08;;;1.20;;
29238;SDS011;16267;48.194;11.546;2022-09-03T17:16:29;2.67;;;1.25;;
29238;SDS011;16267;48.194;11.546;2022-09-03T17:19:34;4.38;;;1.55;;
29238;SDS011;16267;48.194;11.546;2022-09-03T17:22:22;4.82;;;2.08;;
29238;SDS011;16267;48.194;11.546;2022-09-03T17:25:07;7.75;;;3.70;;
29238;SDS011;16267;48.194;11.546;2022-09-03T17:28:42;6.45;;;2.35;;
29238;SDS011;16267;48.194;11.546;2022-09-03T17:31:42;4.20;;;2.40;;
29238;SDS011;16267;48.194;11.546;2022-09-03T17:34:26;5.22;;;1.70;;
29238;SDS011;16267;48.194;11.546;2022-09-03T17:40:02;11.30;;;4.18;;
29238;SDS011;16267;48.194;11.546;2022-09-03T17:49:05;1.83;;;1.50;;
29238;SDS011;16267;48.194;11.546;2022-09-03T17:51:57;6.18;;;2.00;;
29238;SDS011;16267;48.194;11.546;2022-09-03T18:00:04;3.83;;;1.50;;
29238;SDS011;16267;48.194;11.546;2022-09-03T18:02:41;3.10;;;1.30;;
29238;SDS011;16267;48.194;11.546;2022-09-03T18:16:44;1.75;;;1.10;;
29238;SDS011;16267;48.194;11.546;2022-09-03T18:26:11;1.50;;;1.00;;
29238;SDS011;16267;48.194;11.546;2022-09-03T18:29:12;2.28;;;1.10;;
29238;SDS011;16267;48.194;11.546;2022-09-03T18:32:03;2.67;;;1.27;;
29238;SDS011;16267;48.194;11.546;2022-09-03T18:34:48;1.55;;;1.20;;
29238;SDS011;16267;48.194;11.546;2022-09-03T18:37:32;3.28;;;1.00;;
29238;SDS011;16267;48.194;11.546;2022-09-03T18:40:20;1.25;;;0.95;;
29238;SDS011;16267;48.194;11.546;2022-09-03T18:46:58;2.00;;;1.00;;
29238;SDS011;16267;48.194;11.546;2022-09-03T18:50:12;1.77;;;0.85;;
29238;SDS011;16267;48.194;11.546;2022-09-03T18:53:39;2.17;;;1.20;;
29238;SDS011;16267;48.194;11.546;2022-09-03T19:12:42;3.13;;;1.50;;
29238;SDS011;16267;48.194;11.546;2022-09-03T19:22:06;2.30;;;1.27;;
29238;SDS011;16267;48.194;11.546;2022-09-03T19:25:03;2.97;;;1.35;;
29238;SDS011;16267;48.194;11.546;2022-09-03T19:28:14;2.03;;;1.45;;
29238;SDS011;16267;48.194;11.546;2022-09-03T19:37:50;1.98;;;1.60;;
29238;SDS011;16267;48.194;11.546;2022-09-03T19:50:53;3.42;;;1.60;;
29238;SDS011;16267;48.194;11.546;2022-09-03T19:53:51;2.97;;;1.80;;
29238;SDS011;16267;48.194;11.546;2022-09-03T19:56:35;4.75;;;1.20;;
29238;SDS011;16267;48.194;11.546;2022-09-03T19:59:22;3.53;;;1.58;;
29238;SDS011;16267;48.194;11.546;2022-09-03T20:02:11;1.77;;;1.55;;
29238;SDS011;16267;48.194;11.546;2022-09-03T20:05:00;3.03;;;1.70;;
29238;SDS011;16267;48.194;11.546;2022-09-03T20:07:46;3.80;;;1.55;;
29238;SDS011;16267;48.194;11.546;2022-09-03T20:10:36;3.30;;;1.20;;
29238;SDS011;16267;48.194;11.546;2022-09-03T20:13:13;3.35;;;1.65;;
29238;SDS011;16267;48.194;11.546;2022-09-03T20:18:50;2.90;;;1.50;;
29238;SDS011;16267;48.194;11.546;2022-09-03T20:22:01;2.55;;;1.50;;
29238;SDS011;16267;48.194;11.546;2022-09-03T20:30:07;3.35;;;1.40;;
29238;SDS011;16267;48.194;11.546;2022-09-03T20:38:38;3.25;;;1.67;;
29238;SDS011;16267;48.194;11.546;2022-09-03T20:41:38;3.45;;;1.70;;
29238;SDS011;16267;48.194;11.546;2022-09-03T20:50:31;1.80;;;1.60;;
29238;SDS011;16267;48.194;11.546;2022-09-03T20:53:31;3.08;;;1.65;;
29238;SDS011;16267;48.194;11.546;2022-09-03T21:10:07;5.53;;;1.67;;
29238;SDS011;16267;48.194;11.546;2022-09-03T21:22:32;5.13;;;1.90;;
29238;SDS011;16267;48.194;11.546;2022-09-03T21:28:00;3.58;;;1.90;;
29238;SDS011;16267;48.194;11.546;2022-09-03T21:30:35;5.03;;;2.17;;
29238;SDS011;16267;48.194;11.546;2022-09-03T21:33:08;3.83;;;2.03;;
29238;SDS011;16267;48.194;11.546;2022-09-03T21:35:50;3.00;;;1.70;;
29238;SDS011;16267;48.194;11.546;2022-09-03T21:38:24;2.78;;;1.40;;
29238;SDS011;16267;48.194;11.546;2022-09-03T21:41:02;3.30;;;1.80;;
29238;SDS011;16267;48.194;11.546;2022-09-03T21:43:57;4.30;;;1.65;;
29238;SDS011;16267;48.194;11.546;2022-09-03T21:46:52;3.85;;;1.60;;
29238;SDS011;16267;48.194;11.546;2022-09-03T21:49:30;2.35;;;1.55;;
29238;SDS011;16267;48.194;11.546;2022-09-03T21:52:18;2.43;;;1.50;;
29238;SDS011;16267;48.194;11.546;2022-09-03T21:54:55;6.55;;;1.80;;
29238;SDS011;16267;48.194;11.546;2022-09-03T22:02:43;4.22;;;1.45;;
29238;SDS011;16267;48.194;11.546;2022-09-03T22:05:11;1.83;;;1.40;;
29238;SDS011;16267;48.194;11.546;2022-09-03T22:16:26;3.45;;;1.60;;
29238;SDS011;16267;48.194;11.546;2022-09-03T22:19:15;2.28;;;1.50;;
29238;SDS011;16267;48.194;11.546;2022-09-03T22:21:47;4.70;;;1.80;;
29238;SDS011;16267;48.194;11.546;2022-09-03T22:41:18;3.67;;;1.73;;
29238;SDS011;16267;48.194;11.546;2022-09-03T22:52:43;2.28;;;1.55;;
29238;SDS011;16267;48.194;11.546;2022-09-03T22:55:28;3.08;;;1.65;;
29238;SDS011;16267;48.194;11.546;2022-09-03T22:57:56;3.20;;;1.77;;
